Time;durP1;ratioP1;P1;durP2;ratioP2;P2;SDS_P1;SDS_P2;PMS_P1;PMS_P2;Temp;Humidity;BMP_temperature;BMP_pressure;BME280_temperature;BME280_humidity;BME280_pressure;Samples;Min_cycle;Max_cycle;Signal;HPM_P1;HPM_P2
2021/12/20 00:00:25;;;;;;;29.60;19.95;;;;;;;2.29;75.05;101310.34;4989196;28;20042;-64
2021/12/20 00:02:58;;;;;;;28.00;20.23;;;;;;;2.23;74.87;101305.22;4991947;28;20043;-67
2021/12/20 00:05:26;;;;;;;25.55;19.23;;;;;;;2.30;74.60;101309.47;4992958;28;20076;-64
2021/12/20 00:07:52;;;;;;;26.95;20.08;;;;;;;2.29;74.30;101305.16;4992632;28;20046;-64
2021/12/20 00:10:20;;;;;;;22.92;19.55;;;;;;;2.32;74.26;101293.91;4992942;28;20073;-64
2021/12/20 00:12:47;;;;;;;24.70;19.70;;;;;;;2.26;74.15;101290.50;4992626;28;20420;-64
2021/12/20 00:15:14;;;;;;;24.58;19.25;;;;;;;2.30;74.03;101283.56;4992897;28;20061;-67
2021/12/20 00:17:41;;;;;;;23.27;19.05;;;;;;;2.31;73.98;101285.28;4992705;28;20051;-63
2021/12/20 00:20:08;;;;;;;20.70;17.58;;;;;;;2.34;73.78;101287.81;4991633;28;20054;-66
2021/12/20 00:22:35;;;;;;;22.17;17.85;;;;;;;2.38;73.45;101279.13;4994583;28;20053;-64
2021/12/20 00:25:04;;;;;;;24.60;19.55;;;;;;;2.38;73.29;101276.53;4996707;28;20054;-67
2021/12/20 00:27:31;;;;;;;22.98;18.85;;;;;;;2.37;73.32;101277.41;4996946;28;20046;-62
2021/12/20 00:29:58;;;;;;;21.80;17.88;;;;;;;2.39;73.34;101274.81;4996487;28;20061;-67
2021/12/20 00:32:25;;;;;;;27.17;19.80;;;;;;;2.43;73.30;101269.56;4996719;28;20125;-63
2021/12/20 00:34:51;;;;;;;24.17;18.83;;;;;;;2.43;73.13;101268.72;4995675;28;20046;-67
2021/12/20 00:40:22;;;;;;;23.95;19.30;;;;;;;2.44;73.30;101267.84;4996319;28;20691;-66
2021/12/20 00:42:53;;;;;;;20.67;15.80;;;;;;;2.42;73.18;101267.84;4996359;28;20047;-63
2021/12/20 00:45:22;;;;;;;23.88;19.23;;;;;;;2.42;73.23;101262.66;4996291;28;20153;-65
2021/12/20 00:47:49;;;;;;;23.33;19.27;;;;;;;2.38;73.10;101261.00;4996320;28;20050;-67
2021/12/20 00:50:18;;;;;;;24.02;19.83;;;;;;;2.40;73.17;101267.00;4995018;28;20173;-67
2021/12/20 00:52:45;;;;;;;23.75;19.48;;;;;;;2.38;73.19;101262.75;4995945;28;20038;-64
2021/12/20 00:55:16;;;;;;;27.02;20.77;;;;;;;2.39;73.01;101259.28;4996178;28;20505;-67
2021/12/20 00:57:43;;;;;;;25.50;19.75;;;;;;;2.37;73.05;101254.09;4996231;28;20065;-64
2021/12/20 01:00:12;;;;;;;23.08;19.17;;;;;;;2.35;73.15;101255.88;4996134;28;20057;-64
2021/12/20 01:02:39;;;;;;;23.23;18.38;;;;;;;2.36;72.97;101251.53;4995944;28;20042;-67
2021/12/20 01:05:07;;;;;;;26.33;19.55;;;;;;;2.35;73.00;101252.41;4995789;28;20484;-64
2021/12/20 01:07:34;;;;;;;24.38;18.63;;;;;;;2.31;73.08;101250.75;4995290;28;20046;-64
2021/12/20 01:10:05;;;;;;;21.98;18.50;;;;;;;2.25;72.96;101234.41;4995427;28;20054;-64
2021/12/20 01:12:42;;;;;;;21.40;18.10;;;;;;;2.20;72.89;101231.03;4995645;28;20043;-67
2021/12/20 01:15:10;;;;;;;22.75;19.02;;;;;;;2.20;72.96;101225.84;4995691;28;20046;-64
2021/12/20 01:17:37;;;;;;;23.13;18.75;;;;;;;2.22;72.72;101231.88;4995755;28;20415;-67
2021/12/20 01:20:06;;;;;;;23.60;19.42;;;;;;;2.23;72.35;101235.31;4995659;28;20062;-64
2021/12/20 01:22:33;;;;;;;23.48;18.65;;;;;;;2.24;72.51;101239.63;4995646;28;20050;-63
2021/12/20 01:25:00;;;;;;;24.27;18.85;;;;;;;2.24;72.53;101231.84;4995691;28;20042;-64
2021/12/20 01:27:26;;;;;;;24.73;18.30;;;;;;;2.24;72.35;101239.63;4994731;28;20407;-64
2021/12/20 01:29:53;;;;;;;23.73;19.25;;;;;;;2.26;72.36;101230.09;4995296;28;20109;-63
2021/12/20 01:32:20;;;;;;;23.00;18.73;;;;;;;2.24;72.33;101226.69;4995161;28;20047;-64
2021/12/20 01:34:46;;;;;;;25.20;20.27;;;;;;;2.28;72.13;101228.34;4994151;28;20125;-64
2021/12/20 01:37:13;;;;;;;23.73;19.60;;;;;;;2.29;71.97;101228.31;4994493;28;20057;-63
2021/12/20 01:39:40;;;;;;;22.83;18.80;;;;;;;2.29;71.94;101225.72;4994103;28;20660;-63
2021/12/20 01:42:07;;;;;;;22.30;18.95;;;;;;;2.28;71.89;101225.75;4994209;28;20050;-63
2021/12/20 01:44:35;;;;;;;23.23;19.02;;;;;;;2.20;72.05;101225.84;4995447;28;20146;-65
2021/12/20 01:47:04;;;;;;;21.33;18.98;;;;;;;2.15;72.10;101219.91;4995221;28;20050;-63
2021/12/20 01:49:39;;;;;;;24.20;19.05;;;;;;;2.12;72.15;101219.91;4995264;28;20060;-63
2021/12/20 01:52:12;;;;;;;22.75;18.33;;;;;;;2.15;72.16;101217.31;4994892;28;20529;-67
2021/12/20 01:54:38;;;;;;;23.73;18.77;;;;;;;2.17;71.97;101214.69;4995249;28;20065;-63
2021/12/20 01:57:05;;;;;;;23.67;19.63;;;;;;;2.20;71.80;101219.84;4994888;28;20046;-64
2021/12/20 01:59:32;;;;;;;23.45;19.42;;;;;;;2.21;71.87;101208.59;4993821;28;20067;-63
2021/12/20 02:01:59;;;;;;;26.23;19.70;;;;;;;2.22;71.68;101208.59;4994939;28;20057;-66
2021/12/20 02:04:27;;;;;;;25.85;20.08;;;;;;;2.23;71.25;101204.25;4994783;28;20046;-63
2021/12/20 02:06:54;;;;;;;24.48;19.55;;;;;;;2.19;71.92;101202.59;4994550;28;20095;-63
2021/12/20 02:09:20;;;;;;;26.02;19.13;;;;;;;2.18;71.72;101206.06;4994738;28;20054;-63
2021/12/20 02:11:50;;;;;;;25.60;20.30;;;;;;;2.18;71.38;101204.31;4994968;28;20047;-66
2021/12/20 02:14:18;;;;;;;24.67;18.77;;;;;;;2.19;71.35;101202.59;4994859;28;20056;-67
2021/12/20 02:16:46;;;;;;;24.52;19.55;;;;;;;2.14;71.39;101196.63;4993592;28;20050;-63
2021/12/20 02:19:16;;;;;;;26.42;19.77;;;;;;;2.12;71.27;101187.13;4994707;28;20049;-66
2021/12/20 02:21:47;;;;;;;23.08;18.40;;;;;;;2.14;71.38;101191.44;4994602;28;20545;-66
2021/12/20 02:24:14;;;;;;;23.70;18.73;;;;;;;2.10;71.48;101185.44;4994625;28;20050;-63
2021/12/20 02:26:42;;;;;;;22.88;18.35;;;;;;;2.12;71.21;101189.72;4994504;28;20054;-64
2021/12/20 02:29:10;;;;;;;24.33;18.98;;;;;;;2.10;71.30;101183.69;4994520;28;20046;-67
2021/12/20 02:37:19;;;;;;;22.73;18.15;;;;;;;2.05;71.12;101166.53;4994070;28;20149;-65
2021/12/20 02:39:47;;;;;;;22.85;18.35;;;;;;;2.04;70.90;101170.84;4992011;28;20050;-69
2021/12/20 02:42:15;;;;;;;23.85;18.73;;;;;;;2.03;70.71;101166.56;4982847;28;20046;-65
2021/12/20 02:44:47;;;;;;;23.27;19.02;;;;;;;2.00;70.79;101156.25;4993153;28;20050;-66
2021/12/20 02:47:26;;;;;;;23.48;17.20;;;;;;;1.99;70.66;101149.34;4993947;28;20053;-69
2021/12/20 02:49:53;;;;;;;22.08;16.88;;;;;;;1.98;70.81;101155.44;4992903;28;20065;-66
2021/12/20 02:52:19;;;;;;;21.10;17.15;;;;;;;1.93;70.75;101154.59;4993768;28;20436;-66
2021/12/20 02:54:46;;;;;;;23.83;18.42;;;;;;;1.94;70.77;101156.31;4994039;28;20050;-66
2021/12/20 02:57:13;;;;;;;19.73;16.70;;;;;;;1.93;70.62;101167.53;4993901;28;20053;-66
2021/12/20 02:59:40;;;;;;;23.90;18.38;;;;;;;1.94;70.47;101156.31;4993857;28;20512;-68
2021/12/20 03:02:10;;;;;;;20.92;17.02;;;;;;;1.91;70.32;101151.22;4993750;28;20112;-66
2021/12/20 03:04:38;;;;;;;22.73;17.30;;;;;;;1.92;70.53;101153.78;4993984;28;20093;-65
2021/12/20 03:07:09;;;;;;;20.48;16.63;;;;;;;1.89;70.10;101156.41;4992303;28;20046;-69
2021/12/20 03:09:40;;;;;;;18.98;15.68;;;;;;;1.91;70.10;101156.38;4993628;28;20071;-69
2021/12/20 03:12:09;;;;;;;19.30;14.60;;;;;;;1.84;70.25;101142.69;4993522;28;20046;-66
2021/12/20 03:14:42;;;;;;;21.13;15.32;;;;;;;1.84;69.89;101139.22;4993620;28;20056;-66
2021/12/20 03:17:10;;;;;;;17.83;15.15;;;;;;;1.79;70.18;101132.38;4993499;28;20046;-66
2021/12/20 03:19:37;;;;;;;20.30;16.20;;;;;;;1.78;70.19;101137.59;4993469;28;20043;-66
2021/12/20 03:22:05;;;;;;;20.73;16.83;;;;;;;1.77;70.12;101134.13;4993482;28;20061;-65
2021/12/20 03:24:33;;;;;;;19.27;15.65;;;;;;;1.72;70.20;101124.72;4992338;28;20046;-65
2021/12/20 03:26:59;;;;;;;20.30;16.50;;;;;;;1.73;70.01;101123.88;4993263;28;20050;-66
2021/12/20 03:29:26;;;;;;;19.48;15.82;;;;;;;1.72;69.78;101117.81;4993337;28;20046;-68
2021/12/20 03:31:53;;;;;;;19.45;15.60;;;;;;;1.71;69.88;101108.34;4993316;28;20409;-66
2021/12/20 03:34:20;;;;;;;18.45;15.32;;;;;;;1.68;69.74;101105.81;4993282;28;20053;-65
2021/12/20 03:36:47;;;;;;;20.50;15.88;;;;;;;1.61;70.01;101101.59;4993044;28;20063;-65
2021/12/20 03:39:14;;;;;;;20.88;17.00;;;;;;;1.55;69.94;101106.84;4993397;28;20075;-65
2021/12/20 03:41:41;;;;;;;20.63;16.55;;;;;;;1.52;69.93;101112.06;4992444;28;20042;-66
2021/12/20 03:44:08;;;;;;;21.15;16.60;;;;;;;1.54;69.93;101106.00;4993138;28;20065;-66
2021/12/20 03:46:36;;;;;;;21.85;16.75;;;;;;;1.57;69.56;101100.75;4992863;28;20046;-69
2021/12/20 03:49:04;;;;;;;20.40;16.35;;;;;;;1.55;69.21;101097.38;4993044;28;20050;-66
2021/12/20 03:51:31;;;;;;;21.13;15.52;;;;;;;1.49;69.43;101094.84;4992734;28;20053;-66
2021/12/20 03:53:58;;;;;;;21.77;16.92;;;;;;;1.45;69.42;101096.63;4993174;28;20050;-66
2021/12/20 03:56:25;;;;;;;21.95;16.48;;;;;;;1.44;69.30;101097.50;4991776;28;20046;-69
2021/12/20 03:58:52;;;;;;;19.45;16.50;;;;;;;1.51;69.06;101102.59;4992713;28;20054;-66
2021/12/20 04:01:18;;;;;;;21.55;17.33;;;;;;;1.52;69.30;101096.53;4992710;28;20042;-65
2021/12/20 04:03:45;;;;;;;18.80;15.95;;;;;;;1.55;69.18;101094.78;4988381;28;20050;-66
2021/12/20 04:06:13;;;;;;;21.75;16.98;;;;;;;1.54;69.13;101094.81;4988242;28;20399;-65
2021/12/20 04:08:41;;;;;;;21.25;17.05;;;;;;;1.44;69.37;101089.72;4989427;28;20057;-68
2021/12/20 04:11:09;;;;;;;20.98;16.45;;;;;;;1.40;69.45;101095.81;4989143;28;20491;-66
2021/12/20 04:13:36;;;;;;;20.33;16.27;;;;;;;1.44;69.48;101091.47;4988280;28;20385;-66
2021/12/20 04:16:03;;;;;;;20.58;16.45;;;;;;;1.46;68.99;101075.06;4989368;28;20058;-65
2021/12/20 04:18:30;;;;;;;19.73;16.48;;;;;;;1.39;69.41;101088.09;4990048;28;20042;-66
2021/12/20 04:21:01;;;;;;;21.83;16.77;;;;;;;1.33;69.32;101094.19;4989316;28;20112;-70
2021/12/20 04:23:27;;;;;;;23.48;17.30;;;;;;;1.32;69.36;101100.25;4989469;28;20046;-67
2021/12/20 04:25:54;;;;;;;21.75;15.45;;;;;;;1.27;69.43;101082.19;4989158;28;20484;-66
2021/12/20 04:28:22;;;;;;;20.42;15.70;;;;;;;1.27;69.34;101091.66;4988271;28;20053;-66
2021/12/20 04:30:49;;;;;;;19.17;15.25;;;;;;;1.29;69.16;101092.53;4989591;28;20054;-66
2021/12/20 04:33:16;;;;;;;20.80;15.48;;;;;;;1.28;69.34;101089.09;4987764;28;20052;-67
2021/12/20 04:35:43;;;;;;;17.95;13.80;;;;;;;1.29;69.35;101095.09;4987959;28;20050;-66
2021/12/20 04:38:10;;;;;;;23.20;16.13;;;;;;;1.26;69.19;101095.16;4989002;28;20043;-66
2021/12/20 04:40:37;;;;;;;30.35;17.20;;;;;;;1.23;69.34;101100.34;4989312;28;20042;-66
2021/12/20 04:43:05;;;;;;;25.15;16.30;;;;;;;1.25;68.91;101093.44;4989158;28;20490;-66
2021/12/20 04:45:33;;;;;;;24.17;16.67;;;;;;;1.24;69.27;101096.91;4989538;28;20092;-66
2021/12/20 04:48:00;;;;;;;22.30;15.63;;;;;;;1.24;69.11;101094.31;4989158;28;20046;-66
2021/12/20 04:50:28;;;;;;;21.52;14.25;;;;;;;1.20;69.21;101105.56;4988134;28;20042;-69
2021/12/20 04:52:55;;;;;;;17.73;13.55;;;;;;;1.20;69.49;101105.56;4988887;28;20514;-66
2021/12/20 04:55:24;;;;;;;19.48;13.93;;;;;;;1.23;69.23;101105.53;4988951;28;20046;-66
2021/12/20 04:57:51;;;;;;;19.17;13.90;;;;;;;1.15;69.35;101115.94;4989017;28;20046;-66
2021/12/20 05:00:24;;;;;;;21.58;13.80;;;;;;;1.17;69.31;101110.75;4988973;28;20050;-66
2021/12/20 05:02:51;;;;;;;18.95;14.05;;;;;;;1.18;69.39;101110.75;4988988;28;20050;-66
2021/12/20 05:05:19;;;;;;;22.05;15.38;;;;;;;1.27;69.17;101108.06;4989295;28;20078;-66
2021/12/20 05:07:46;;;;;;;21.90;14.00;;;;;;;1.29;69.29;101111.47;4988024;28;20414;-66
2021/12/20 05:10:25;;;;;;;21.98;14.55;;;;;;;1.23;69.41;101115.84;4990817;28;20054;-66
2021/12/20 05:12:58;;;;;;;20.98;15.38;;;;;;;1.24;69.29;101115.00;4992099;28;20050;-66
2021/12/20 05:15:26;;;;;;;21.20;16.00;;;;;;;1.27;69.41;101122.69;4992512;28;20603;-70
2021/12/20 05:17:54;;;;;;;22.92;15.02;;;;;;;1.24;69.54;101123.59;4992335;28;20057;-66
2021/12/20 05:20:21;;;;;;;22.83;15.88;;;;;;;1.25;69.69;101132.22;4992566;28;20042;-69
2021/12/20 05:22:49;;;;;;;22.63;15.15;;;;;;;1.25;69.65;101127.88;4992542;28;20533;-67
2021/12/20 05:25:16;;;;;;;21.10;14.07;;;;;;;1.25;69.91;101134.81;4992735;28;20053;-66
2021/12/20 05:27:42;;;;;;;23.23;15.40;;;;;;;1.28;69.61;101135.63;4991303;28;20108;-65
2021/12/20 05:30:11;;;;;;;21.38;15.30;;;;;;;1.35;69.85;101128.66;4992452;28;20548;-65
2021/12/20 05:32:38;;;;;;;21.65;15.57;;;;;;;1.35;69.79;101131.22;4992313;28;20054;-66
2021/12/20 05:35:07;;;;;;;23.65;14.93;;;;;;;1.32;69.77;101130.41;4992113;28;20161;-65
2021/12/20 05:37:34;;;;;;;22.90;15.75;;;;;;;1.26;70.15;101121.84;4992346;28;20058;-65
2021/12/20 05:40:04;;;;;;;28.05;17.25;;;;;;;1.29;70.12;101120.97;4992105;28;20050;-65
2021/12/20 05:42:31;;;;;;;23.15;14.63;;;;;;;1.34;69.97;101118.31;4992364;28;20046;-66
2021/12/20 05:44:58;;;;;;;21.80;14.30;;;;;;;1.34;70.07;101113.16;4990790;28;20046;-65
2021/12/20 05:47:24;;;;;;;24.30;14.77;;;;;;;1.37;70.20;101124.31;4992080;28;20080;-65
2021/12/20 05:49:52;;;;;;;21.05;14.63;;;;;;;1.35;70.18;101140.72;4991950;28;20391;-65
2021/12/20 05:52:19;;;;;;;19.80;14.25;;;;;;;1.36;70.27;101139.84;4991699;28;20046;-66
2021/12/20 05:54:45;;;;;;;19.70;13.07;;;;;;;1.39;70.21;101147.56;4992024;28;20051;-67
2021/12/20 05:57:13;;;;;;;20.38;14.18;;;;;;;1.41;70.41;101148.38;4991954;28;20057;-66
2021/12/20 05:59:39;;;;;;;24.33;15.52;;;;;;;1.43;70.28;101152.66;4991713;28;20487;-63
2021/12/20 06:02:06;;;;;;;27.88;17.88;;;;;;;1.49;70.18;101148.31;4990534;28;20121;-61
2021/12/20 06:04:33;;;;;;;31.80;19.35;;;;;;;1.50;70.46;101148.28;4992111;28;20413;-61
2021/12/20 06:07:00;;;;;;;28.95;18.83;;;;;;;1.53;70.12;101155.16;4991396;28;20065;-61
2021/12/20 06:09:34;;;;;;;31.52;18.98;;;;;;;1.56;70.34;101162.88;4991647;28;20157;-61
2021/12/20 06:12:03;;;;;;;34.13;17.25;;;;;;;1.55;70.38;101171.50;4991268;28;20077;-61
2021/12/20 06:14:30;;;;;;;28.27;18.17;;;;;;;1.60;70.49;101167.13;4991593;28;20384;-61
2021/12/20 06:16:58;;;;;;;31.20;18.85;;;;;;;1.62;70.37;101173.97;4990373;28;20042;-62
2021/12/20 06:19:26;;;;;;;30.83;17.88;;;;;;;1.66;70.39;101177.41;4999338;28;20524;-62
2021/12/20 06:21:54;;;;;;;33.35;19.05;;;;;;;1.67;70.59;101183.44;5006367;28;20053;-62
2021/12/20 06:24:21;;;;;;;41.60;19.75;;;;;;;1.65;70.52;101193.81;4995266;28;20048;-63
2021/12/20 06:26:48;;;;;;;36.80;19.90;;;;;;;1.67;70.68;101194.63;4991070;28;20050;-62
2021/12/20 06:29:15;;;;;;;37.35;19.15;;;;;;;1.68;70.73;101196.34;4991003;28;20506;-61
2021/12/20 06:31:42;;;;;;;36.97;20.00;;;;;;;1.70;70.67;101181.69;4989885;28;20046;-62
2021/12/20 06:34:09;;;;;;;36.83;21.42;;;;;;;1.66;70.93;101195.50;4990904;28;20101;-61
2021/12/20 06:36:36;;;;;;;38.40;22.05;;;;;;;1.70;70.94;101196.31;4991066;28;20506;-61
2021/12/20 06:39:05;;;;;;;32.38;19.65;;;;;;;1.63;70.97;101196.41;4991067;28;20434;-61
2021/12/20 06:41:32;;;;;;;36.78;18.98;;;;;;;1.62;71.09;101192.09;4990899;28;20046;-62
2021/12/20 06:44:01;;;;;;;36.65;21.60;;;;;;;1.65;71.35;101201.56;4990924;28;20046;-61
2021/12/20 06:46:28;;;;;;;37.55;22.05;;;;;;;1.72;71.05;101216.13;4990529;28;20050;-60
2021/12/20 06:48:55;;;;;;;36.70;22.42;;;;;;;1.72;71.09;101215.28;4989531;28;20043;-61
2021/12/20 06:51:22;;;;;;;32.45;18.88;;;;;;;1.69;71.13;101221.34;4990721;28;20436;-61
2021/12/20 06:53:49;;;;;;;33.33;20.08;;;;;;;1.71;71.14;101232.50;4990498;28;20050;-61
2021/12/20 06:56:16;;;;;;;36.47;20.98;;;;;;;1.94;70.93;101224.50;4990578;28;20046;-61
2021/12/20 06:58:42;;;;;;;33.78;19.60;;;;;;;1.88;71.27;101237.50;4991361;28;20549;-61
2021/12/20 07:01:09;;;;;;;33.00;19.38;;;;;;;1.90;71.12;101230.56;5006312;28;20057;-61
2021/12/20 07:03:36;;;;;;;43.22;22.60;;;;;;;1.86;71.20;101235.81;5004257;28;20486;-61
2021/12/20 07:06:04;;;;;;;36.22;21.15;;;;;;;1.85;71.17;101234.09;5007230;28;20655;-61
2021/12/20 07:08:30;;;;;;;36.30;20.95;;;;;;;1.85;71.06;101253.06;5008952;28;20050;-61
2021/12/20 07:10:57;;;;;;;40.03;21.33;;;;;;;1.77;71.20;101241.94;5006081;28;20054;-61
2021/12/20 07:13:24;;;;;;;34.42;18.90;;;;;;;1.76;71.39;101250.59;5006768;28;20046;-61
2021/12/20 07:15:51;;;;;;;33.42;19.77;;;;;;;1.71;71.55;101253.22;5005942;28;20046;-64
2021/12/20 07:18:18;;;;;;;31.40;18.52;;;;;;;2.10;70.65;101263.94;4998860;28;20414;-61
2021/12/20 07:20:45;;;;;;;32.15;19.38;;;;;;;2.01;70.94;101268.41;5003944;28;20105;-61
2021/12/20 07:23:12;;;;;;;36.45;19.75;;;;;;;1.96;71.09;101261.53;5006796;28;20042;-61
2021/12/20 07:25:39;;;;;;;34.83;20.92;;;;;;;1.96;70.74;101260.69;5008016;28;20050;-61
2021/12/20 07:28:06;;;;;;;39.42;21.48;;;;;;;1.92;71.02;101265.06;5008079;28;20046;-61
2021/12/20 07:30:34;;;;;;;33.78;20.80;;;;;;;1.90;71.14;101265.94;5005470;28;20042;-61
2021/12/20 07:33:01;;;;;;;29.63;17.98;;;;;;;1.93;71.05;101271.06;4993169;28;20443;-61
2021/12/20 07:35:28;;;;;;;32.90;19.30;;;;;;;1.93;71.19;101268.47;4989631;28;20491;-60
2021/12/20 07:37:57;;;;;;;33.42;18.73;;;;;;;1.95;70.65;101277.09;4990120;28;20050;-61
2021/12/20 07:40:24;;;;;;;31.08;19.00;;;;;;;1.95;71.04;101274.50;5005446;28;20054;-61
2021/12/20 07:42:52;;;;;;;34.75;20.55;;;;;;;1.98;70.85;101281.38;5008202;28;20050;-64
2021/12/20 07:45:19;;;;;;;32.58;18.70;;;;;;;2.01;70.81;101287.38;5003697;28;20477;-61
2021/12/20 07:47:50;;;;;;;32.65;18.80;;;;;;;2.01;70.89;101289.13;5006428;28;20081;-61
2021/12/20 07:50:18;;;;;;;31.92;20.88;;;;;;;2.02;70.82;101294.28;5005197;28;20085;-62
2021/12/20 07:52:46;;;;;;;33.58;19.80;;;;;;;1.94;70.88;101291.78;5006785;28;20112;-61
2021/12/20 07:55:14;;;;;;;31.92;19.80;;;;;;;1.94;70.88;101307.31;5005565;28;21062;-60
2021/12/20 07:57:42;;;;;;;35.55;19.67;;;;;;;1.98;70.68;101315.91;5002418;28;20117;-61
2021/12/20 08:00:12;;;;;;;35.42;21.45;;;;;;;2.12;70.33;101315.72;5007425;28;20120;-60
2021/12/20 08:02:43;;;;;;;33.65;19.00;;;;;;;2.22;70.04;101322.50;4992640;28;20054;-60
2021/12/20 08:05:12;;;;;;;37.33;20.50;;;;;;;2.30;70.26;101332.78;5007659;28;20124;-60
2021/12/20 08:07:40;;;;;;;38.08;21.98;;;;;;;2.41;69.87;101323.13;5007304;28;20069;-60
2021/12/20 08:10:08;;;;;;;39.75;22.95;;;;;;;2.44;69.68;101330.00;5006056;28;20073;-60
2021/12/20 08:12:35;;;;;;;42.58;22.98;;;;;;;2.57;69.39;101333.28;4991287;28;20038;-60
2021/12/20 08:15:06;;;;;;;42.67;25.23;;;;;;;2.76;69.00;101324.34;4980684;28;20455;-60
2021/12/20 08:17:36;;;;;;;43.67;24.38;;;;;;;2.96;68.75;101332.69;4990532;28;20481;-62
2021/12/20 08:20:06;;;;;;;42.13;25.08;;;;;;;3.15;68.42;101341.03;5004407;28;20073;-60
2021/12/20 08:22:34;;;;;;;43.58;24.45;;;;;;;3.31;67.90;101339.06;5003650;28;20121;-60
2021/12/20 08:25:03;;;;;;;39.03;23.65;;;;;;;3.45;67.84;101357.00;5003296;28;20053;-60
2021/12/20 08:27:30;;;;;;;40.35;24.38;;;;;;;3.68;67.25;101354.88;5002374;28;20050;-61
2021/12/20 08:29:58;;;;;;;40.50;22.23;;;;;;;4.01;66.36;101360.31;5003177;28;20049;-59
2021/12/20 08:32:25;;;;;;;35.03;21.33;;;;;;;4.30;65.80;101361.44;5005198;28;20060;-60
2021/12/20 08:34:54;;;;;;;35.85;22.08;;;;;;;4.47;65.33;101366.31;5004932;28;20129;-60
2021/12/20 08:37:21;;;;;;;33.38;21.65;;;;;;;4.60;65.10;101373.81;5006785;28;20061;-60
2021/12/20 08:39:53;;;;;;;35.50;20.88;;;;;;;4.87;64.77;101374.97;5006435;28;20597;-61
2021/12/20 08:42:21;;;;;;;35.65;21.17;;;;;;;5.01;64.07;101367.69;5002299;28;20483;-61
2021/12/20 08:44:49;;;;;;;32.55;19.70;;;;;;;5.06;64.21;101368.44;5005121;28;20115;-61
2021/12/20 08:47:16;;;;;;;31.35;19.90;;;;;;;5.26;63.74;101379.25;5006161;28;20622;-60
2021/12/20 08:49:43;;;;;;;31.67;20.58;;;;;;;5.23;63.75;101391.47;5009607;28;20085;-60
2021/12/20 08:52:11;;;;;;;33.92;21.42;;;;;;;5.36;63.33;101396.41;5008681;28;20096;-60
2021/12/20 08:54:38;;;;;;;35.55;21.42;;;;;;;5.40;63.34;101398.88;5005862;28;20446;-61
2021/12/20 08:57:07;;;;;;;35.10;21.92;;;;;;;5.51;62.91;101393.41;5007258;28;20042;-61
2021/12/20 08:59:35;;;;;;;32.38;19.88;;;;;;;5.53;62.84;101404.63;5009430;28;20132;-61
2021/12/20 09:02:04;;;;;;;31.38;20.58;;;;;;;5.68;62.71;101412.97;5005456;28;20052;-60
2021/12/20 09:04:30;;;;;;;33.80;21.50;;;;;;;5.95;61.91;101408.75;5006538;28;20042;-61
2021/12/20 09:06:57;;;;;;;28.42;19.55;;;;;;;6.20;61.24;101411.59;5009709;28;20132;-61
2021/12/20 09:09:28;;;;;;;32.72;20.42;;;;;;;6.34;61.01;101419.03;5010952;28;20050;-60
2021/12/20 09:11:54;;;;;;;28.85;20.35;;;;;;;6.48;60.67;101417.81;5008643;28;20049;-61
2021/12/20 09:14:21;;;;;;;29.92;18.73;;;;;;;6.62;60.26;101426.06;5001699;28;20057;-61
2021/12/20 09:16:48;;;;;;;31.70;19.20;;;;;;;6.72;60.25;101424.06;5005747;28;20046;-61
2021/12/20 09:19:14;;;;;;;31.13;19.40;;;;;;;6.77;60.07;101426.53;5008653;28;20514;-61
2021/12/20 09:21:41;;;;;;;28.85;19.23;;;;;;;7.09;59.39;101437.75;5004510;28;20046;-61
2021/12/20 09:24:09;;;;;;;28.33;18.88;;;;;;;6.94;59.22;101431.25;5009974;28;20061;-61
2021/12/20 09:26:36;;;;;;;29.75;19.77;;;;;;;7.18;58.98;101437.44;5010021;28;20054;-61
2021/12/20 09:29:03;;;;;;;27.33;18.92;;;;;;;7.41;58.54;101439.31;5005830;28;20050;-61
2021/12/20 09:31:31;;;;;;;28.13;18.85;;;;;;;7.39;58.75;101437.66;5005813;28;20081;-61
2021/12/20 09:33:58;;;;;;;30.08;19.15;;;;;;;7.57;58.14;101444.03;5004578;28;20610;-61
2021/12/20 09:36:29;;;;;;;28.45;19.15;;;;;;;7.64;57.96;101453.41;5007581;28;20088;-65
2021/12/20 09:38:57;;;;;;;30.77;20.00;;;;;;;7.81;57.29;101450.25;5009997;28;20052;-61
2021/12/20 09:41:59;;;;;;;30.48;19.95;;;;;;;7.73;57.81;101449.63;5004625;28;20138;-61
2021/12/20 09:44:14;;;;;;;29.83;19.38;;;;;;;7.72;57.64;101454.00;5010389;28;20069;-61
2021/12/20 09:46:41;;;;;;;31.38;20.77;;;;;;;7.94;57.05;101454.13;5005193;28;20384;-61
2021/12/20 09:49:10;;;;;;;29.08;19.55;;;;;;;8.07;57.19;101451.09;5005665;28;23405;-61
2021/12/20 09:51:37;;;;;;;31.58;21.00;;;;;;;8.21;56.42;101461.06;5006707;28;20054;-61
2021/12/20 09:54:05;;;;;;;31.65;20.00;;;;;;;8.25;56.24;101465.28;5003356;28;20056;-61
2021/12/20 09:56:34;;;;;;;29.00;19.50;;;;;;;8.30;56.09;101460.75;5009040;28;20086;-61
2021/12/20 09:59:01;;;;;;;29.42;19.15;;;;;;;8.25;56.12;101466.16;5007307;28;20442;-61
2021/12/20 10:01:28;;;;;;;29.77;17.83;;;;;;;8.15;56.21;101464.75;5008594;28;20545;-63
2021/12/20 10:03:56;;;;;;;23.63;15.32;;;;;;;8.03;56.12;101467.81;5006444;28;20050;-60
2021/12/20 10:06:23;;;;;;;21.30;13.43;;;;;;;7.96;56.15;101461.91;5001770;28;20048;-61
2021/12/20 10:08:52;;;;;;;19.90;11.85;;;;;;;8.01;56.35;101473.94;5009651;28;20049;-61
2021/12/20 10:11:24;;;;;;;21.92;12.45;;;;;;;8.08;56.15;101474.56;5009291;28;20061;-61
2021/12/20 10:14:14;;;;;;;22.73;11.68;;;;;;;7.75;57.03;101466.13;5007588;28;20076;-60
2021/12/20 10:16:43;;;;;;;19.33;12.25;;;;;;;7.66;57.65;101472.50;5008272;28;20087;-61
2021/12/20 10:19:28;;;;;;;21.45;12.43;;;;;;;7.95;57.14;101478.53;5007820;28;20056;-60
2021/12/20 10:21:58;;;;;;;21.90;13.73;;;;;;;7.73;57.92;101483.59;5003543;28;20061;-61
2021/12/20 10:24:38;;;;;;;24.30;14.10;;;;;;;7.91;58.20;101480.38;5008183;28;20058;-60
2021/12/20 10:27:05;;;;;;;23.83;13.68;;;;;;;8.06;57.93;101489.44;5009382;28;20125;-61
2021/12/20 10:29:37;;;;;;;22.50;12.75;;;;;;;8.13;57.68;101503.19;5007803;28;20046;-61
2021/12/20 10:32:04;;;;;;;25.85;14.32;;;;;;;8.35;57.90;101492.81;5000729;28;20084;-61
2021/12/20 10:34:33;;;;;;;25.05;14.07;;;;;;;8.34;58.02;101498.94;5006473;28;20049;-60
2021/12/20 10:37:01;;;;;;;25.70;13.80;;;;;;;8.33;58.25;101497.25;5007359;28;20046;-60
2021/12/20 10:39:45;;;;;;;25.30;14.18;;;;;;;8.56;58.24;101506.06;5006199;28;20046;-60
2021/12/20 10:42:21;;;;;;;25.23;15.80;;;;;;;8.60;58.33;101497.22;5008831;28;20056;-61
2021/12/20 10:45:14;;;;;;;22.75;14.75;;;;;;;8.47;58.77;101508.13;5008853;28;20049;-61
2021/12/20 10:47:42;;;;;;;21.67;13.55;;;;;;;8.56;59.26;101524.38;5006867;28;20490;-63
2021/12/20 10:50:32;;;;;;;22.85;13.68;;;;;;;8.36;60.23;101518.06;5005206;28;20042;-61
2021/12/20 10:53:22;;;;;;;19.40;12.75;;;;;;;8.17;60.98;101510.00;5007069;28;20054;-61
2021/12/20 10:55:58;;;;;;;20.50;12.98;;;;;;;7.51;62.65;101513.00;5006146;28;20050;-61
2021/12/20 10:58:44;;;;;;;18.95;12.27;;;;;;;7.10;64.45;101526.44;5005284;28;20128;-60
2021/12/20 11:04:00;;;;;;;20.75;12.85;;;;;;;6.78;65.92;101524.72;5003522;28;20046;-60
2021/12/20 11:09:15;;;;;;;22.25;13.30;;;;;;;6.71;66.39;101521.44;4989938;28;20089;-61
2021/12/20 11:11:55;;;;;;;22.90;14.18;;;;;;;6.72;66.56;101522.28;4989935;28;20086;-61
2021/12/20 11:14:26;;;;;;;21.67;14.10;;;;;;;6.75;66.79;101514.41;4988906;28;20052;-61
2021/12/20 11:16:55;;;;;;;20.48;13.68;;;;;;;6.75;66.81;101512.63;4989777;28;20053;-60
2021/12/20 11:19:23;;;;;;;21.90;14.85;;;;;;;6.80;67.17;101509.91;4994536;28;20046;-63
2021/12/20 11:22:08;;;;;;;22.63;14.82;;;;;;;6.82;67.09;101508.13;5007710;28;20498;-61
2021/12/20 11:24:40;;;;;;;25.42;15.32;;;;;;;6.78;67.44;101507.34;5007685;28;20046;-65
2021/12/20 11:27:14;;;;;;;25.48;15.30;;;;;;;6.77;67.53;101504.78;4998734;28;20483;-61
2021/12/20 11:29:42;;;;;;;25.30;15.70;;;;;;;6.75;67.55;101511.78;4988656;28;20050;-61
2021/12/20 11:32:09;;;;;;;24.50;15.38;;;;;;;6.77;67.95;101510.84;4988672;28;20062;-60
2021/12/20 11:34:42;;;;;;;24.25;15.15;;;;;;;6.81;68.00;101501.19;4984348;28;20050;-62
2021/12/20 11:37:15;;;;;;;27.30;15.93;;;;;;;6.86;67.95;101504.53;4991813;28;20050;-61